createdAt,value
2018-07-24T00:01:30.700Z,61.30
2018-07-24T00:03:59.517Z,60.70
2018-07-24T00:06:28.332Z,61.10
2018-07-24T00:08:57.653Z,61.50
2018-07-24T00:11:26.480Z,61.30
2018-07-24T00:13:55.308Z,60.90
2018-07-24T00:16:24.195Z,61.50
2018-07-24T00:18:53.043Z,59.80
2018-07-24T00:21:21.860Z,61.20
2018-07-24T00:23:50.718Z,60.90
2018-07-24T00:26:19.556Z,60.70
2018-07-24T00:28:48.448Z,59.50
2018-07-24T00:31:17.334Z,58.50
2018-07-24T00:33:46.157Z,60.00
2018-07-24T00:36:14.971Z,59.70
2018-07-24T00:38:44.217Z,59.30
2018-07-24T00:41:13.087Z,60.50
2018-07-24T00:43:41.904Z,59.80
2018-07-24T00:46:10.861Z,59.80
2018-07-24T00:48:39.676Z,59.00
2018-07-24T00:51:08.555Z,60.00
2018-07-24T00:53:37.404Z,58.50
2018-07-24T00:56:06.710Z,59.10
2018-07-24T00:58:35.603Z,59.20
2018-07-24T01:01:04.487Z,59.20
2018-07-24T01:03:33.411Z,59.10
2018-07-24T01:08:30.727Z,59.00
2018-07-24T01:10:59.561Z,59.20
2018-07-24T01:13:28.385Z,59.20
2018-07-24T01:15:57.247Z,58.30
2018-07-24T01:18:26.065Z,58.40
2018-07-24T01:20:54.892Z,58.70
2018-07-24T01:23:23.818Z,58.80
2018-07-24T01:25:52.628Z,59.40
2018-07-24T01:28:21.440Z,59.30
2018-07-24T01:30:50.316Z,59.10
2018-07-24T01:33:19.141Z,58.00
2018-07-24T01:35:48.001Z,58.80
2018-07-24T01:38:16.939Z,58.60
2018-07-24T01:40:45.823Z,59.00
2018-07-24T01:43:14.691Z,59.30
2018-07-24T01:45:43.589Z,58.80
2018-07-24T01:48:12.438Z,58.90
2018-07-24T01:50:41.319Z,59.50
2018-07-24T01:53:10.224Z,59.20
2018-07-24T01:55:39.092Z,59.20
2018-07-24T02:00:36.428Z,58.90
2018-07-24T02:03:05.267Z,59.20
2018-07-24T02:05:34.081Z,58.70
2018-07-24T02:08:03.000Z,59.00
2018-07-24T02:10:31.872Z,59.00
2018-07-24T02:13:00.713Z,58.50
2018-07-24T02:15:29.679Z,58.70
2018-07-24T02:17:58.548Z,58.70
2018-07-24T02:20:27.385Z,59.00
2018-07-24T02:22:56.277Z,59.00
2018-07-24T02:25:25.139Z,58.50
2018-07-24T02:27:53.996Z,58.70
2018-07-24T02:30:22.894Z,59.20
2018-07-24T02:32:51.728Z,58.70
2018-07-24T02:35:20.600Z,59.30
2018-07-24T02:37:49.527Z,59.40
2018-07-24T02:40:18.342Z,59.50
2018-07-24T02:42:47.200Z,59.60
2018-07-24T02:45:16.197Z,59.90
2018-07-24T02:47:45.061Z,60.40
2018-07-24T02:50:13.884Z,60.80
2018-07-24T02:52:42.759Z,60.40
2018-07-24T02:55:11.613Z,60.80
2018-07-24T02:57:40.431Z,61.00
2018-07-24T03:00:09.325Z,60.30
2018-07-24T03:02:38.186Z,59.80
2018-07-24T03:05:07.277Z,59.70
2018-07-24T03:07:36.120Z,59.60
2018-07-24T03:10:05.243Z,59.00
2018-07-24T03:12:34.167Z,60.00
2018-07-24T03:15:03.058Z,59.10
2018-07-24T03:17:31.907Z,59.50
2018-07-24T03:20:00.781Z,59.20
2018-07-24T03:22:29.645Z,59.10
2018-07-24T03:24:58.456Z,59.70
2018-07-24T03:27:27.333Z,59.80
2018-07-24T03:29:56.247Z,59.40
2018-07-24T03:32:25.139Z,59.10
2018-07-24T03:34:54.008Z,58.50
2018-07-24T03:37:22.987Z,59.10
2018-07-24T03:39:51.857Z,58.60
2018-07-24T03:42:20.724Z,58.60
2018-07-24T03:44:49.646Z,58.40
2018-07-24T03:47:18.452Z,58.60
2018-07-24T03:49:47.316Z,58.30
2018-07-24T03:52:16.279Z,58.60
2018-07-24T03:54:45.103Z,58.80
2018-07-24T03:57:13.952Z,58.70
2018-07-24T03:59:42.804Z,59.10
2018-07-24T04:02:11.634Z,59.40
2018-07-24T04:04:40.538Z,60.00
2018-07-24T04:07:09.481Z,59.20
2018-07-24T04:09:38.333Z,59.10
2018-07-24T04:12:07.152Z,59.00
2018-07-24T04:14:36.052Z,58.80
2018-07-24T04:17:04.872Z,58.60
2018-07-24T04:19:33.728Z,58.50
2018-07-24T04:22:02.585Z,58.40
2018-07-24T04:24:32.388Z,58.70
2018-07-24T04:27:01.351Z,58.80
2018-07-24T04:29:30.256Z,58.60
2018-07-24T04:31:59.112Z,58.30
2018-07-24T04:34:28.028Z,58.00
2018-07-24T04:36:56.958Z,57.90
2018-07-24T04:39:25.820Z,58.00
2018-07-24T04:41:54.708Z,57.90
2018-07-24T04:44:23.624Z,57.80
2018-07-24T04:46:52.517Z,57.80
2018-07-24T04:49:21.344Z,57.70
2018-07-24T04:51:50.249Z,57.80
2018-07-24T04:54:19.080Z,57.70
2018-07-24T04:56:47.897Z,57.70
2018-07-24T04:59:16.756Z,57.80
2018-07-24T05:01:45.565Z,57.90
2018-07-24T05:04:14.424Z,57.90
2018-07-24T05:06:43.276Z,58.00
2018-07-24T05:09:13.808Z,58.00
2018-07-24T05:11:43.469Z,57.70
2018-07-24T05:14:12.603Z,57.80
2018-07-24T05:16:42.123Z,57.80
2018-07-24T05:19:11.119Z,57.90
2018-07-24T05:21:39.999Z,57.80
2018-07-24T05:24:08.875Z,57.70
2018-07-24T05:26:37.797Z,57.60
2018-07-24T05:29:06.664Z,57.30
2018-07-24T05:31:35.564Z,57.00
2018-07-24T05:34:04.949Z,56.90
2018-07-24T05:36:33.764Z,56.90
2018-07-24T05:39:02.724Z,56.60
2018-07-24T05:41:31.612Z,56.50
2018-07-24T05:44:00.404Z,56.60
2018-07-24T05:46:29.261Z,56.70
2018-07-24T05:48:58.188Z,56.30
2018-07-24T05:51:27.087Z,56.30
2018-07-24T05:53:55.950Z,56.30
2018-07-24T05:58:53.358Z,56.20
2018-07-24T06:01:22.219Z,55.90
2018-07-24T06:03:51.134Z,55.80
2018-07-24T06:08:48.412Z,55.80
2018-07-24T06:11:17.268Z,55.70
2018-07-24T06:13:46.081Z,55.80
2018-07-24T06:16:14.917Z,55.70
2018-07-24T06:18:43.849Z,55.60
2018-07-24T06:21:12.722Z,55.40
2018-07-24T06:23:41.699Z,55.50
2018-07-24T06:26:10.551Z,55.70
2018-07-24T06:28:39.511Z,55.70
2018-07-24T06:31:08.344Z,55.80
2018-07-24T06:33:37.352Z,55.90
2018-07-24T06:36:06.176Z,55.90
2018-07-24T06:38:35.008Z,55.90
2018-07-24T06:41:03.875Z,55.50
2018-07-24T06:43:32.910Z,55.20
2018-07-24T06:46:01.828Z,55.10
2018-07-24T06:48:30.678Z,55.10
2018-07-24T06:50:59.587Z,55.10
2018-07-24T06:53:28.461Z,55.20
2018-07-24T06:55:57.341Z,55.20
2018-07-24T06:58:26.247Z,55.40
2018-07-24T07:00:55.157Z,55.50
2018-07-24T07:03:24.141Z,55.50
2018-07-24T07:05:53.036Z,55.00
2018-07-24T07:08:21.899Z,54.80
2018-07-24T07:10:50.776Z,54.80
2018-07-24T07:13:19.722Z,54.70
2018-07-24T07:15:56.950Z,54.50
2018-07-24T07:18:25.868Z,54.50
2018-07-24T07:20:58.620Z,54.40
2018-07-24T07:23:28.351Z,54.30
2018-07-24T07:25:57.361Z,54.50
2018-07-24T07:28:26.317Z,54.70
2018-07-24T07:30:55.384Z,54.60
2018-07-24T07:33:30.355Z,54.60
2018-07-24T07:35:59.729Z,54.80
2018-07-24T07:38:28.672Z,54.80
2018-07-24T07:40:57.701Z,54.80
2018-07-24T07:43:26.652Z,54.80
2018-07-24T07:45:55.557Z,54.50
2018-07-24T07:48:24.428Z,54.40
2018-07-24T07:50:53.383Z,54.40
2018-07-24T07:53:22.348Z,54.40
2018-07-24T07:55:51.394Z,54.00
2018-07-24T07:58:20.515Z,54.00
2018-07-24T08:00:49.488Z,53.90
2018-07-24T08:03:18.389Z,53.90
2018-07-24T08:05:47.288Z,53.70
2018-07-24T08:08:16.279Z,53.60
2018-07-24T08:10:45.376Z,53.40
2018-07-24T08:13:14.188Z,53.10
2018-07-24T08:15:43.045Z,53.00
2018-07-24T08:18:11.953Z,52.90
2018-07-24T08:20:47.343Z,52.90
2018-07-24T08:23:16.239Z,53.20
2018-07-24T08:25:45.184Z,53.60
2018-07-24T08:28:14.094Z,53.90
2018-07-24T08:30:43.447Z,53.70
2018-07-24T08:33:12.372Z,53.60
2018-07-24T08:35:41.193Z,53.20
2018-07-24T08:38:10.140Z,53.20
2018-07-24T08:40:39.010Z,53.00
2018-07-24T08:43:07.960Z,53.20
2018-07-24T08:45:36.912Z,54.10
2018-07-24T08:48:05.887Z,54.50
2018-07-24T08:50:34.775Z,54.20
2018-07-24T08:53:03.837Z,53.90
2018-07-24T08:55:32.921Z,53.60
2018-07-24T08:58:01.485Z,53.40
2018-07-24T09:00:30.666Z,53.50
2018-07-24T09:02:59.616Z,53.00
2018-07-24T09:05:28.548Z,52.10
2018-07-24T09:07:57.495Z,52.70
2018-07-24T09:10:26.420Z,53.00
2018-07-24T09:12:55.316Z,53.00
2018-07-24T09:15:24.277Z,53.60
2018-07-24T09:17:53.156Z,53.70
2018-07-24T09:20:21.975Z,53.20
2018-07-24T09:22:50.872Z,53.20
2018-07-24T09:25:19.680Z,53.30
2018-07-24T09:27:48.658Z,53.40
2018-07-24T09:30:17.533Z,53.30
2018-07-24T09:32:46.415Z,53.00
2018-07-24T09:35:15.390Z,53.20
2018-07-24T09:37:44.289Z,53.50
2018-07-24T09:40:13.266Z,53.20
2018-07-24T09:42:42.220Z,53.20
2018-07-24T09:45:11.113Z,53.60
2018-07-24T09:47:39.950Z,53.40
2018-07-24T09:50:10.676Z,53.50
2018-07-24T09:52:40.100Z,53.50
2018-07-24T09:55:09.031Z,53.50
2018-07-24T09:57:37.958Z,53.40
2018-07-24T10:00:08.296Z,53.10
2018-07-24T10:02:38.381Z,53.00
2018-07-24T10:05:07.758Z,53.40
2018-07-24T10:07:36.676Z,53.40
2018-07-24T10:12:38.196Z,53.70
2018-07-24T10:15:19.168Z,53.70
2018-07-24T10:17:48.262Z,53.10
2018-07-24T10:20:21.205Z,53.20
2018-07-24T10:22:56.474Z,52.60
2018-07-24T10:28:29.695Z,52.50
2018-07-24T10:30:58.876Z,52.30
2018-07-24T10:33:28.804Z,52.60
2018-07-24T10:35:57.823Z,52.40
2018-07-24T10:38:26.882Z,52.50
2018-07-24T10:40:55.862Z,52.20
2018-07-24T10:45:53.421Z,53.10
2018-07-24T10:48:22.680Z,52.40
2018-07-24T10:50:51.541Z,52.30
2018-07-24T10:53:20.403Z,52.20
2018-07-24T10:55:49.359Z,52.60
2018-07-24T10:58:18.234Z,52.20
2018-07-24T11:00:47.101Z,52.40
2018-07-24T11:03:16.124Z,52.20
2018-07-24T11:05:45.000Z,52.60
2018-07-24T11:08:15.726Z,52.10
2018-07-24T11:10:44.812Z,52.20
2018-07-24T11:13:13.662Z,51.90
2018-07-24T11:18:11.181Z,51.90
2018-07-24T11:20:40.065Z,52.20
2018-07-24T11:23:09.168Z,52.30
2018-07-24T11:25:39.954Z,52.10
2018-07-24T11:28:08.892Z,52.40
2018-07-24T11:33:06.662Z,52.30
2018-07-24T11:35:35.926Z,52.00
2018-07-24T11:38:05.092Z,51.90
2018-07-24T11:40:34.355Z,51.50
2018-07-24T11:43:03.172Z,51.00
2018-07-24T11:45:32.402Z,51.40
2018-07-24T11:48:01.265Z,51.60
2018-07-24T11:50:30.164Z,51.10
2018-07-24T11:52:59.044Z,51.00
2018-07-24T11:55:27.906Z,51.20
2018-07-24T11:57:56.761Z,51.20
2018-07-24T12:00:27.904Z,51.20
2018-07-24T12:05:25.543Z,51.00
2018-07-24T12:07:54.528Z,50.60
2018-07-24T12:10:23.469Z,50.70
2018-07-24T12:12:52.598Z,51.00
2018-07-24T12:15:22.145Z,50.90
2018-07-24T12:17:51.113Z,51.00
2018-07-24T12:20:25.950Z,51.20
2018-07-24T12:22:56.932Z,51.00
2018-07-24T12:25:25.867Z,51.30
2018-07-24T12:28:04.123Z,51.90
2018-07-24T12:30:33.038Z,51.20
2018-07-24T12:33:02.403Z,50.50
2018-07-24T12:35:31.459Z,52.80
2018-07-24T12:38:00.320Z,51.60
2018-07-24T12:40:29.883Z,50.80
2018-07-24T12:42:59.235Z,51.80
2018-07-24T12:45:28.150Z,51.30
2018-07-24T12:47:57.099Z,50.60
2018-07-24T12:50:26.036Z,50.90
2018-07-24T12:52:55.499Z,51.50
2018-07-24T12:55:25.652Z,52.00
2018-07-24T12:57:54.593Z,51.90
2018-07-24T13:00:23.656Z,52.40
2018-07-24T13:02:52.692Z,52.40
2018-07-24T13:05:22.016Z,53.10
2018-07-24T13:07:50.936Z,52.30
2018-07-24T13:10:20.823Z,52.00
2018-07-24T13:12:49.718Z,51.10
2018-07-24T13:15:18.651Z,52.50
2018-07-24T13:17:47.489Z,51.70
2018-07-24T13:20:16.483Z,50.70
2018-07-24T13:22:45.385Z,51.50
2018-07-24T13:25:14.474Z,51.10
2018-07-24T13:27:43.433Z,51.50
2018-07-24T13:30:18.543Z,51.20
2018-07-24T13:32:47.559Z,51.60
2018-07-24T13:35:16.533Z,51.70
2018-07-24T13:37:45.428Z,51.00
2018-07-24T13:40:14.388Z,52.10
2018-07-24T13:42:44.131Z,50.30
2018-07-24T13:45:13.002Z,50.50
2018-07-24T13:47:41.895Z,49.90
2018-07-24T13:50:10.713Z,49.60
2018-07-24T13:52:39.545Z,49.40
2018-07-24T13:55:09.290Z,49.60
2018-07-24T13:57:38.191Z,50.20
2018-07-24T14:00:07.113Z,50.30
2018-07-24T14:02:36.072Z,50.30
2018-07-24T14:05:05.033Z,50.30
2018-07-24T14:07:34.116Z,50.20
2018-07-24T14:10:02.978Z,50.20
2018-07-24T14:12:31.906Z,50.00
2018-07-24T14:15:00.833Z,49.70
2018-07-24T14:17:29.947Z,49.60
2018-07-24T14:20:00.736Z,49.40
2018-07-24T14:22:30.319Z,49.40
2018-07-24T14:24:59.192Z,49.40
2018-07-24T14:27:28.124Z,49.70
2018-07-24T14:29:57.005Z,49.80
2018-07-24T14:32:27.183Z,50.10
2018-07-24T14:34:56.012Z,49.80
2018-07-24T14:37:24.907Z,49.90
2018-07-24T14:39:53.761Z,49.80
2018-07-24T14:42:22.579Z,49.90
2018-07-24T14:44:51.472Z,49.90
2018-07-24T14:47:20.368Z,50.00
2018-07-24T14:49:49.256Z,50.10
2018-07-24T14:52:18.200Z,50.20
2018-07-24T14:54:47.022Z,49.90
2018-07-24T14:57:15.887Z,50.00
2018-07-24T14:59:44.864Z,49.60
2018-07-24T15:02:13.825Z,49.40
2018-07-24T15:07:11.374Z,49.50
2018-07-24T15:09:40.374Z,49.40
2018-07-24T15:12:09.332Z,48.90
2018-07-24T15:14:38.220Z,48.90
2018-07-24T15:17:07.165Z,48.70
2018-07-24T15:19:42.756Z,48.70
2018-07-24T15:22:11.617Z,48.50
2018-07-24T15:24:40.472Z,48.30
2018-07-24T15:27:09.490Z,48.30
2018-07-24T15:29:39.256Z,48.30
2018-07-24T15:32:08.127Z,48.70
2018-07-24T15:34:37.151Z,48.60
2018-07-24T15:37:06.201Z,48.60
2018-07-24T15:39:35.188Z,48.40
2018-07-24T15:42:06.991Z,48.90
2018-07-24T15:44:38.731Z,48.60
2018-07-24T15:47:07.663Z,48.70
2018-07-24T15:49:36.492Z,48.20
2018-07-24T15:52:05.443Z,48.00
2018-07-24T15:54:34.303Z,47.60
2018-07-24T15:57:03.127Z,48.50
2018-07-24T15:59:31.997Z,48.20
2018-07-24T16:02:00.955Z,48.40
2018-07-24T16:04:29.843Z,49.30
2018-07-24T16:09:27.280Z,48.70
2018-07-24T16:11:56.107Z,48.30
2018-07-24T16:14:25.084Z,48.50
2018-07-24T16:16:55.508Z,49.30
2018-07-24T16:19:27.218Z,48.70
2018-07-24T16:21:56.280Z,49.00
2018-07-24T16:24:25.175Z,51.20
2018-07-24T16:26:53.997Z,52.00
2018-07-24T16:29:22.888Z,51.40
2018-07-24T16:31:51.768Z,50.30
2018-07-24T16:34:21.495Z,50.60
2018-07-24T16:36:50.440Z,51.00
2018-07-24T16:39:19.324Z,51.30
2018-07-24T16:41:48.141Z,51.90
2018-07-24T16:44:17.024Z,51.00
2018-07-24T16:46:45.928Z,52.00
2018-07-24T16:49:14.894Z,52.30
2018-07-24T16:51:43.834Z,51.90
2018-07-24T16:54:12.700Z,51.10
2018-07-24T16:56:41.624Z,52.60
2018-07-24T16:59:10.440Z,52.10
2018-07-24T17:01:39.241Z,52.20
2018-07-24T17:04:08.180Z,52.20
2018-07-24T17:06:37.027Z,53.20
2018-07-24T17:09:08.721Z,52.50
2018-07-24T17:11:38.124Z,52.50
2018-07-24T17:14:07.112Z,52.10
2018-07-24T17:16:36.083Z,52.20
2018-07-24T17:19:04.956Z,52.40
2018-07-24T17:21:33.781Z,52.30
2018-07-24T17:24:02.716Z,52.50
2018-07-24T17:26:32.176Z,52.50
2018-07-24T17:29:01.008Z,52.50
2018-07-24T17:31:29.889Z,52.50
2018-07-24T17:33:58.756Z,52.30
2018-07-24T17:36:27.678Z,52.50
2018-07-24T17:41:25.141Z,52.30
2018-07-24T17:43:54.006Z,52.40
2018-07-24T17:46:24.121Z,52.40
2018-07-24T17:48:53.089Z,52.50
2018-07-24T17:53:50.502Z,52.00
2018-07-24T17:56:19.464Z,52.50
2018-07-24T17:58:48.317Z,52.50
2018-07-24T18:01:17.632Z,52.70
2018-07-24T18:03:46.459Z,52.80
2018-07-24T18:06:15.304Z,52.90
2018-07-24T18:08:44.269Z,52.90
2018-07-24T18:11:13.072Z,52.90
2018-07-24T18:13:42.148Z,52.90
2018-07-24T18:16:10.988Z,53.10
2018-07-24T18:18:39.893Z,53.00
2018-07-24T18:21:08.707Z,53.20
2018-07-24T18:23:37.515Z,53.30
2018-07-24T18:26:06.583Z,53.40
2018-07-24T18:28:35.395Z,53.50
2018-07-24T18:31:04.198Z,53.50
2018-07-24T18:33:34.031Z,53.50
2018-07-24T18:36:02.828Z,53.60
2018-07-24T18:38:31.744Z,53.50
2018-07-24T18:41:00.767Z,53.60
2018-07-24T18:43:29.558Z,53.60
2018-07-24T18:45:58.370Z,53.60
2018-07-24T18:48:27.244Z,53.70
2018-07-24T18:50:56.053Z,53.60
2018-07-24T18:53:25.044Z,53.60
2018-07-24T18:55:54.544Z,54.00
2018-07-24T18:58:23.361Z,54.20
2018-07-24T19:00:52.203Z,54.40
2018-07-24T19:03:21.068Z,54.50
2018-07-24T19:05:49.960Z,54.70
2018-07-24T19:08:18.851Z,54.80
2018-07-24T19:10:47.758Z,54.90
2018-07-24T19:13:16.566Z,55.00
2018-07-24T19:18:13.872Z,55.30
2018-07-24T19:20:42.732Z,54.90
2018-07-24T19:23:11.588Z,55.00
2018-07-24T19:25:40.449Z,55.00
2018-07-24T19:28:09.353Z,55.00
2018-07-24T19:30:38.173Z,55.20
2018-07-24T19:33:07.060Z,55.20
2018-07-24T19:35:35.921Z,55.40
2018-07-24T19:40:33.237Z,55.30
2018-07-24T19:43:02.105Z,55.20
2018-07-24T19:45:30.910Z,55.30
2018-07-24T19:47:59.808Z,55.30
2018-07-24T19:50:28.612Z,55.20
2018-07-24T19:52:57.868Z,55.10
2018-07-24T19:55:27.500Z,55.10
2018-07-24T19:57:56.402Z,55.40
2018-07-24T20:00:25.201Z,55.10
2018-07-24T20:02:54.163Z,55.40
2018-07-24T20:05:47.645Z,54.70
2018-07-24T20:08:16.533Z,55.30
2018-07-24T20:10:45.368Z,54.90
2018-07-24T20:13:14.331Z,56.30
2018-07-24T20:15:43.191Z,56.20
2018-07-24T20:20:40.686Z,56.10
2018-07-24T20:23:12.421Z,56.00
2018-07-24T20:25:41.548Z,55.90
2018-07-24T20:28:10.645Z,55.90
2018-07-24T20:30:41.483Z,56.00
2018-07-24T20:33:11.388Z,55.80
2018-07-24T20:35:40.441Z,55.70
2018-07-24T20:38:09.350Z,55.60
2018-07-24T20:40:38.273Z,55.60
2018-07-24T20:43:07.161Z,55.40
2018-07-24T20:45:36.028Z,55.50
2018-07-24T20:48:04.968Z,55.20
2018-07-24T20:50:33.891Z,55.50
2018-07-24T20:53:02.742Z,55.70
2018-07-24T20:55:31.608Z,55.60
2018-07-24T20:58:00.569Z,55.80
2018-07-24T21:00:29.792Z,55.90
2018-07-24T21:02:58.914Z,56.40
2018-07-24T21:05:27.913Z,55.90
2018-07-24T21:07:56.937Z,55.90
2018-07-24T21:10:25.819Z,55.80
2018-07-24T21:12:54.822Z,55.80
2018-07-24T21:15:23.703Z,55.80
2018-07-24T21:17:52.547Z,55.70
2018-07-24T21:20:21.496Z,55.70
2018-07-24T21:22:50.334Z,55.70
2018-07-24T21:25:19.207Z,55.60
2018-07-24T21:27:48.118Z,55.60
2018-07-24T21:30:16.969Z,55.50
2018-07-24T21:32:45.797Z,55.50
2018-07-24T21:35:14.669Z,55.80
2018-07-24T21:37:43.505Z,56.20
2018-07-24T21:40:12.348Z,56.30
2018-07-24T21:42:41.671Z,57.00
2018-07-24T21:45:10.530Z,57.40
2018-07-24T21:47:39.394Z,58.60
2018-07-24T21:50:08.315Z,57.00
2018-07-24T21:52:37.266Z,57.70
2018-07-24T21:55:06.208Z,58.10
2018-07-24T21:57:35.180Z,57.50
2018-07-24T22:00:04.147Z,57.70
2018-07-24T22:02:33.140Z,57.90
2018-07-24T22:05:02.001Z,57.80
2018-07-24T22:07:30.853Z,57.80
2018-07-24T22:09:59.724Z,57.60
2018-07-24T22:12:28.565Z,57.40
2018-07-24T22:14:57.440Z,57.50
2018-07-24T22:17:26.343Z,58.50
2018-07-24T22:19:55.184Z,57.40
2018-07-24T22:22:24.032Z,57.90
2018-07-24T22:24:52.923Z,57.80
2018-07-24T22:27:21.758Z,57.70
2018-07-24T22:32:19.106Z,58.20
2018-07-24T22:34:47.972Z,57.90
2018-07-24T22:37:16.838Z,58.00
2018-07-24T22:39:45.732Z,57.90
2018-07-24T22:42:14.585Z,57.70
2018-07-24T22:44:43.419Z,57.80
2018-07-24T22:47:12.352Z,58.00
2018-07-24T22:49:41.193Z,57.80
2018-07-24T22:52:10.088Z,57.30
2018-07-24T22:57:07.445Z,57.70
2018-07-24T22:59:36.279Z,57.90
2018-07-24T23:02:05.193Z,57.60
2018-07-24T23:04:34.047Z,58.10
2018-07-24T23:07:02.922Z,58.30
2018-07-24T23:09:31.799Z,57.90
2018-07-24T23:12:00.745Z,58.30
2018-07-24T23:14:29.605Z,58.30
2018-07-24T23:16:58.521Z,58.20
2018-07-24T23:19:27.493Z,58.30
2018-07-24T23:21:56.356Z,58.10
2018-07-24T23:24:25.265Z,58.30
2018-07-24T23:26:54.209Z,58.00
2018-07-24T23:29:23.211Z,58.50
2018-07-24T23:31:52.118Z,58.70
2018-07-24T23:34:21.043Z,59.10
2018-07-24T23:36:49.848Z,59.20
2018-07-24T23:39:18.734Z,59.50
2018-07-24T23:41:47.626Z,59.40
2018-07-24T23:44:16.529Z,59.40
2018-07-24T23:46:45.387Z,59.20
2018-07-24T23:49:14.360Z,59.20
2018-07-24T23:51:43.217Z,59.40
2018-07-24T23:54:12.027Z,59.70
2018-07-24T23:56:40.883Z,59.60
2018-07-24T23:59:09.706Z,59.60
